createdAt,value
2018-02-20T00:00:48.433Z,0.00
2018-02-20T00:01:48.421Z,0.00
2018-02-20T00:02:48.413Z,0.00
2018-02-20T00:03:48.388Z,0.00
2018-02-20T00:04:48.383Z,0.00
2018-02-20T00:05:48.359Z,0.00
2018-02-20T00:06:48.352Z,0.00
2018-02-20T00:07:48.331Z,0.00
2018-02-20T00:08:48.323Z,0.00
2018-02-20T00:09:48.302Z,0.00
2018-02-20T00:10:48.293Z,0.00
2018-02-20T00:11:48.277Z,0.00
2018-02-20T00:12:48.257Z,0.00
2018-02-20T00:13:48.244Z,0.00
2018-02-20T00:14:48.235Z,0.00
2018-02-20T00:15:48.213Z,0.00
2018-02-20T00:16:48.206Z,0.00
2018-02-20T00:17:48.186Z,0.00
2018-02-20T00:18:48.173Z,0.00
2018-02-20T00:19:48.155Z,0.00
2018-02-20T00:20:48.146Z,0.00
2018-02-20T00:21:48.126Z,0.00
2018-02-20T00:22:48.117Z,0.00
2018-02-20T00:23:48.098Z,0.00
2018-02-20T00:24:48.087Z,0.00
2018-02-20T00:25:48.068Z,0.00
2018-02-20T00:26:48.055Z,0.00
2018-02-20T00:27:48.040Z,0.00
2018-02-20T00:28:48.030Z,0.00
2018-02-20T00:29:48.013Z,0.00
2018-02-20T00:30:47.995Z,0.00
2018-02-20T00:31:47.982Z,0.00
2018-02-20T00:32:47.966Z,0.00
2018-02-20T00:33:47.952Z,0.00
2018-02-20T00:34:47.939Z,0.00
2018-02-20T00:35:47.928Z,0.00
2018-02-20T00:36:47.908Z,0.00
2018-02-20T00:37:47.894Z,0.00
2018-02-20T00:38:47.883Z,0.00
2018-02-20T00:39:47.870Z,0.00
2018-02-20T00:40:47.852Z,0.00
2018-02-20T00:41:47.836Z,0.00
2018-02-20T00:42:47.827Z,0.00
2018-02-20T00:43:47.806Z,0.00
2018-02-20T00:44:47.792Z,0.00
2018-02-20T00:45:47.779Z,0.00
2018-02-20T00:46:47.768Z,0.00
2018-02-20T00:47:47.748Z,0.00
2018-02-20T00:48:47.740Z,0.00
2018-02-20T00:49:47.717Z,0.00
2018-02-20T00:50:47.712Z,0.00
2018-02-20T00:51:47.689Z,0.00
2018-02-20T00:52:47.681Z,0.00
2018-02-20T00:53:47.661Z,0.00
2018-02-20T00:54:47.648Z,0.00
2018-02-20T00:55:47.631Z,0.00
2018-02-20T00:56:47.618Z,0.00
2018-02-20T00:57:47.606Z,0.00
2018-02-20T00:58:47.590Z,0.00
2018-02-20T00:59:47.580Z,0.00
2018-02-20T01:00:47.561Z,0.00
2018-02-20T01:01:47.545Z,0.00
2018-02-20T01:02:47.535Z,0.00
2018-02-20T01:03:47.516Z,0.00
2018-02-20T01:04:47.500Z,0.00
2018-02-20T01:05:47.487Z,0.00
2018-02-20T01:06:47.479Z,0.00
2018-02-20T01:07:47.457Z,0.00
2018-02-20T01:08:47.448Z,0.00
2018-02-20T01:09:47.427Z,0.00
2018-02-20T01:10:47.415Z,0.00
2018-02-20T01:11:47.398Z,0.00
2018-02-20T01:12:47.392Z,0.00
2018-02-20T01:13:47.374Z,0.00
2018-02-20T01:14:47.363Z,0.00
2018-02-20T01:15:47.348Z,0.00
2018-02-20T01:16:47.331Z,0.00
2018-02-20T01:17:47.317Z,0.00
2018-02-20T01:18:47.303Z,0.00
2018-02-20T01:19:47.282Z,0.00
2018-02-20T01:20:47.267Z,0.00
2018-02-20T01:21:47.252Z,0.00
2018-02-20T01:22:47.249Z,0.00
2018-02-20T01:23:47.222Z,0.00
2018-02-20T01:24:47.208Z,0.00
2018-02-20T01:25:47.198Z,0.00
2018-02-20T01:26:47.182Z,0.00
2018-02-20T01:27:47.164Z,0.00
2018-02-20T01:28:47.150Z,0.00
2018-02-20T01:29:47.135Z,0.00
2018-02-20T01:30:47.120Z,0.00
2018-02-20T01:31:47.104Z,0.00
2018-02-20T01:32:47.091Z,0.00
2018-02-20T01:33:47.077Z,0.00
2018-02-20T01:34:47.061Z,0.00
2018-02-20T01:35:47.046Z,0.00
2018-02-20T01:36:47.033Z,0.00
2018-02-20T01:37:47.022Z,0.00
2018-02-20T01:38:47.005Z,0.00
2018-02-20T01:39:46.989Z,0.00
2018-02-20T01:40:46.977Z,0.00
2018-02-20T01:41:46.959Z,0.00
2018-02-20T01:42:46.947Z,0.00
2018-02-20T01:43:46.930Z,0.00
2018-02-20T01:44:46.915Z,0.00
2018-02-20T01:45:46.900Z,0.00
2018-02-20T01:46:46.887Z,0.00
2018-02-20T01:47:46.876Z,0.00
2018-02-20T01:48:46.858Z,0.00
2018-02-20T01:49:46.840Z,0.00
2018-02-20T01:50:46.827Z,0.00
2018-02-20T01:51:46.813Z,0.00
2018-02-20T01:52:46.797Z,0.00
2018-02-20T01:53:46.782Z,0.00
2018-02-20T01:54:46.768Z,0.00
2018-02-20T01:55:46.757Z,0.00
2018-02-20T01:56:46.744Z,0.00
2018-02-20T01:57:46.728Z,0.00
2018-02-20T01:58:46.726Z,0.00
2018-02-20T01:59:46.696Z,0.00
2018-02-20T02:00:46.689Z,0.00
2018-02-20T02:01:46.670Z,0.00
2018-02-20T02:02:46.652Z,0.00
2018-02-20T02:03:46.635Z,0.00
2018-02-20T02:04:46.620Z,0.00
2018-02-20T02:05:46.605Z,0.00
2018-02-20T02:06:46.598Z,0.00
2018-02-20T02:07:46.578Z,0.00
2018-02-20T02:08:46.563Z,0.00
2018-02-20T02:09:46.555Z,0.00
2018-02-20T02:10:46.541Z,0.00
2018-02-20T02:11:46.517Z,0.00
2018-02-20T02:12:46.539Z,0.00
2018-02-20T02:13:46.494Z,0.00
2018-02-20T02:14:46.472Z,0.00
2018-02-20T02:15:46.463Z,0.00
2018-02-20T02:16:46.444Z,0.00
2018-02-20T02:17:46.431Z,0.00
2018-02-20T02:18:46.419Z,0.00
2018-02-20T02:19:46.397Z,0.00
2018-02-20T02:20:46.384Z,0.00
2018-02-20T02:21:46.368Z,0.00
2018-02-20T02:22:46.355Z,0.00
2018-02-20T02:23:46.340Z,0.00
2018-02-20T02:24:46.326Z,0.00
2018-02-20T02:25:46.309Z,0.00
2018-02-20T02:26:46.297Z,0.00
2018-02-20T02:27:46.281Z,0.00
2018-02-20T02:28:46.266Z,0.00
2018-02-20T02:29:46.252Z,0.00
2018-02-20T02:30:46.237Z,0.00
2018-02-20T02:31:46.228Z,0.00
2018-02-20T02:32:46.208Z,0.00
2018-02-20T02:33:46.193Z,0.00
2018-02-20T02:34:46.178Z,0.00
2018-02-20T02:35:46.162Z,0.00
2018-02-20T02:36:46.153Z,0.00
2018-02-20T02:37:46.134Z,0.00
2018-02-20T02:38:46.120Z,0.00
2018-02-20T02:39:46.107Z,0.00
2018-02-20T02:40:46.090Z,0.00
2018-02-20T02:41:46.075Z,0.00
2018-02-20T02:42:46.067Z,0.00
2018-02-20T02:43:46.044Z,0.00
2018-02-20T02:44:46.034Z,0.00
2018-02-20T02:45:46.019Z,0.00
2018-02-20T02:46:46.002Z,0.00
2018-02-20T02:47:45.987Z,0.00
2018-02-20T02:48:45.972Z,0.00
2018-02-20T02:49:45.957Z,0.00
2018-02-20T02:50:45.943Z,0.00
2018-02-20T02:51:45.931Z,0.00
2018-02-20T02:52:45.911Z,0.00
2018-02-20T02:53:45.896Z,0.00
2018-02-20T02:54:45.884Z,0.00
2018-02-20T02:55:45.867Z,0.00
2018-02-20T02:56:45.857Z,0.00
2018-02-20T02:57:45.842Z,0.00
2018-02-20T02:58:45.823Z,0.00
2018-02-20T02:59:45.815Z,0.00
2018-02-20T03:00:45.796Z,0.00
2018-02-20T03:01:45.785Z,0.00
2018-02-20T03:02:45.770Z,0.00
2018-02-20T03:03:45.754Z,0.00
2018-02-20T03:04:45.741Z,0.00
2018-02-20T03:05:45.721Z,0.00
2018-02-20T03:06:45.705Z,0.00
2018-02-20T03:07:45.697Z,0.00
2018-02-20T03:08:45.684Z,0.00
2018-02-20T03:09:45.667Z,0.00
2018-02-20T03:10:45.652Z,0.00
2018-02-20T03:11:45.632Z,0.00
2018-02-20T03:12:45.617Z,0.00
2018-02-20T03:13:45.603Z,0.00
2018-02-20T03:14:45.591Z,0.00
2018-02-20T03:15:45.577Z,0.00
2018-02-20T03:16:45.558Z,0.00
2018-02-20T03:17:45.547Z,0.00
2018-02-20T03:18:45.535Z,0.00
2018-02-20T03:19:45.520Z,0.00
2018-02-20T03:20:45.501Z,0.00
2018-02-20T03:21:45.486Z,0.00
2018-02-20T03:22:45.470Z,0.00
2018-02-20T03:23:45.456Z,0.00
2018-02-20T03:24:45.442Z,0.00
2018-02-20T03:25:45.429Z,0.00
2018-02-20T03:26:45.419Z,0.00
2018-02-20T03:27:45.404Z,0.00
2018-02-20T03:28:45.383Z,0.00
2018-02-20T03:29:45.369Z,0.00
2018-02-20T03:30:45.354Z,0.00
2018-02-20T03:31:45.343Z,0.00
2018-02-20T03:32:45.324Z,0.00
2018-02-20T03:33:45.310Z,0.00
2018-02-20T03:34:45.302Z,0.00
2018-02-20T03:35:45.285Z,0.00
2018-02-20T03:36:45.267Z,0.00
2018-02-20T03:37:45.253Z,0.00
2018-02-20T03:38:45.241Z,0.00
2018-02-20T03:39:45.220Z,0.00
2018-02-20T03:40:45.206Z,0.00
2018-02-20T03:41:45.192Z,0.00
2018-02-20T03:42:45.233Z,0.00
2018-02-20T03:43:45.164Z,0.00
2018-02-20T03:44:45.147Z,0.00
2018-02-20T03:45:45.134Z,0.00
2018-02-20T03:46:45.125Z,0.00
2018-02-20T03:47:45.103Z,0.00
2018-02-20T03:48:45.095Z,0.00
2018-02-20T03:49:45.080Z,0.00
2018-02-20T03:50:45.062Z,0.00
2018-02-20T03:51:45.045Z,0.00
2018-02-20T03:52:45.031Z,0.00
2018-02-20T03:53:45.020Z,0.00
2018-02-20T03:54:45.001Z,0.00
2018-02-20T03:55:44.994Z,0.00
2018-02-20T03:56:44.974Z,0.00
2018-02-20T03:57:44.959Z,0.00
2018-02-20T03:58:44.942Z,0.00
2018-02-20T03:59:44.934Z,0.00
2018-02-20T04:00:44.913Z,0.00
2018-02-20T04:01:44.907Z,0.00
2018-02-20T04:02:44.885Z,0.00
2018-02-20T04:03:44.869Z,0.00
2018-02-20T04:04:44.855Z,0.00
2018-02-20T04:05:44.842Z,0.00
2018-02-20T04:06:44.832Z,0.00
2018-02-20T04:07:44.812Z,0.00
2018-02-20T04:08:44.802Z,0.00
2018-02-20T04:09:44.784Z,0.00
2018-02-20T04:10:44.769Z,0.00
2018-02-20T04:11:44.754Z,0.00
2018-02-20T04:12:44.741Z,0.00
2018-02-20T04:13:44.726Z,0.00
2018-02-20T04:14:44.711Z,0.00
2018-02-20T04:15:44.696Z,0.00
2018-02-20T04:16:44.683Z,0.00
2018-02-20T04:17:44.740Z,0.00
2018-02-20T04:18:44.651Z,0.00
2018-02-20T04:19:44.636Z,0.00
2018-02-20T04:20:44.633Z,0.00
2018-02-20T04:21:44.615Z,0.00
2018-02-20T04:22:44.613Z,0.00
2018-02-20T04:23:44.579Z,0.00
2018-02-20T04:24:44.580Z,0.00
2018-02-20T04:25:44.551Z,0.00
2018-02-20T04:26:44.552Z,0.00
2018-02-20T04:27:44.527Z,0.00
2018-02-20T04:28:44.509Z,0.00
2018-02-20T04:29:44.506Z,0.00
2018-02-20T04:30:44.490Z,0.00
2018-02-20T04:31:44.491Z,0.00
2018-02-20T04:32:44.463Z,0.00
2018-02-20T04:33:44.433Z,0.00
2018-02-20T04:34:44.556Z,0.00
2018-02-20T04:35:44.404Z,0.00
2018-02-20T04:36:44.426Z,0.00
2018-02-20T04:37:44.382Z,0.00
2018-02-20T04:38:44.390Z,0.00
2018-02-20T04:39:44.345Z,0.00
2018-02-20T04:40:44.402Z,0.00
2018-02-20T04:41:44.315Z,0.00
2018-02-20T04:42:44.321Z,0.00
2018-02-20T04:43:44.300Z,0.00
2018-02-20T04:44:44.276Z,0.00
2018-02-20T04:45:44.259Z,0.00
2018-02-20T04:46:44.301Z,0.00
2018-02-20T04:47:44.236Z,0.00
2018-02-20T04:48:44.219Z,0.00
2018-02-20T04:49:44.217Z,0.00
2018-02-20T04:50:44.188Z,0.00
2018-02-20T04:51:44.177Z,0.00
2018-02-20T04:52:44.157Z,0.00
2018-02-20T04:53:44.151Z,0.00
2018-02-20T04:54:44.132Z,0.00
2018-02-20T04:55:44.177Z,0.00
2018-02-20T04:56:44.113Z,0.00
2018-02-20T04:57:44.107Z,0.00
2018-02-20T04:58:44.088Z,0.00
2018-02-20T04:59:44.053Z,0.00
2018-02-20T05:00:44.039Z,0.00
2018-02-20T05:01:44.068Z,0.00
2018-02-20T05:02:44.028Z,0.00
2018-02-20T05:03:44.002Z,0.00
2018-02-20T05:04:43.987Z,0.00
2018-02-20T05:05:43.986Z,0.00
2018-02-20T05:06:43.968Z,0.00
2018-02-20T05:07:43.936Z,0.00
2018-02-20T05:08:43.928Z,0.00
2018-02-20T05:09:43.921Z,0.00
2018-02-20T05:10:43.896Z,0.00
2018-02-20T05:11:43.878Z,0.00
2018-02-20T05:12:43.917Z,0.00
2018-02-20T05:13:43.851Z,0.00
2018-02-20T05:14:43.950Z,0.00
2018-02-20T05:15:43.835Z,0.00
2018-02-20T05:16:43.839Z,0.00
2018-02-20T05:17:43.841Z,0.00
2018-02-20T05:18:43.779Z,0.00
2018-02-20T05:19:43.815Z,0.00
2018-02-20T05:20:43.795Z,0.00
2018-02-20T05:21:43.800Z,0.00
2018-02-20T05:22:43.864Z,0.00
2018-02-20T05:23:43.770Z,0.00
2018-02-20T05:24:43.701Z,0.00
2018-02-20T05:25:43.734Z,0.00
2018-02-20T05:26:43.662Z,0.00
2018-02-20T05:27:43.650Z,0.00
2018-02-20T05:28:43.631Z,0.00
2018-02-20T05:29:43.628Z,0.00
2018-02-20T05:30:43.610Z,0.00
2018-02-20T05:31:43.611Z,0.00
2018-02-20T05:32:43.615Z,0.00
2018-02-20T05:33:43.560Z,0.00
2018-02-20T05:34:43.545Z,0.00
2018-02-20T05:35:43.535Z,0.00
2018-02-20T05:36:43.516Z,0.00
2018-02-20T05:37:43.504Z,0.00
2018-02-20T05:38:43.485Z,0.00
2018-02-20T05:39:43.469Z,0.00
2018-02-20T05:40:43.457Z,0.00
2018-02-20T05:41:43.443Z,0.00
2018-02-20T05:42:43.426Z,0.00
2018-02-20T05:43:43.413Z,0.00
2018-02-20T05:44:43.397Z,0.00
2018-02-20T05:45:43.383Z,0.00
2018-02-20T05:46:43.371Z,0.00
2018-02-20T05:47:43.352Z,0.00
2018-02-20T05:48:43.339Z,0.00
2018-02-20T05:49:43.324Z,0.00
2018-02-20T05:50:43.318Z,0.00
2018-02-20T05:51:43.293Z,0.00
2018-02-20T05:52:43.278Z,0.00
2018-02-20T05:53:43.264Z,0.00
2018-02-20T05:54:43.257Z,0.00
2018-02-20T05:55:43.235Z,0.00
2018-02-20T05:56:43.223Z,0.00
2018-02-20T05:57:43.206Z,0.00
2018-02-20T05:58:43.191Z,0.00
2018-02-20T05:59:43.176Z,0.00
2018-02-20T06:00:43.162Z,0.00
2018-02-20T06:01:43.148Z,0.00
2018-02-20T06:02:43.134Z,0.00
2018-02-20T06:03:43.120Z,0.00
2018-02-20T06:04:43.104Z,0.00
2018-02-20T06:05:43.092Z,0.00
2018-02-20T06:06:43.081Z,0.00
2018-02-20T06:07:43.066Z,0.00
2018-02-20T06:08:43.042Z,0.00
2018-02-20T06:09:43.079Z,0.00
2018-02-20T06:10:43.014Z,0.00
2018-02-20T06:11:43.003Z,0.00
2018-02-20T06:12:42.993Z,0.00
2018-02-20T06:13:42.984Z,0.00
2018-02-20T06:14:42.956Z,0.00
2018-02-20T06:15:42.944Z,0.00
2018-02-20T06:16:42.925Z,0.00
2018-02-20T06:17:42.917Z,0.00
2018-02-20T06:18:42.899Z,0.00
2018-02-20T06:19:42.885Z,0.00
2018-02-20T06:20:42.869Z,0.00
2018-02-20T06:21:42.860Z,0.00
2018-02-20T06:22:42.839Z,0.00
2018-02-20T06:23:42.823Z,0.00
2018-02-20T06:24:42.816Z,0.00
2018-02-20T06:25:42.796Z,0.00
2018-02-20T06:26:42.779Z,0.00
2018-02-20T06:27:42.766Z,0.00
2018-02-20T06:28:42.752Z,0.00
2018-02-20T06:29:42.736Z,0.00
2018-02-20T06:30:42.720Z,0.00
2018-02-20T06:31:42.711Z,0.00
2018-02-20T06:32:42.689Z,0.00
2018-02-20T06:33:42.674Z,0.00
2018-02-20T06:34:42.664Z,0.00
2018-02-20T06:35:42.644Z,0.00
2018-02-20T06:36:42.636Z,0.00
2018-02-20T06:37:42.613Z,0.00
2018-02-20T06:38:42.599Z,0.00
2018-02-20T06:39:42.585Z,0.00
2018-02-20T06:40:42.569Z,0.00
2018-02-20T06:41:42.561Z,0.00
2018-02-20T06:42:42.544Z,0.00
2018-02-20T06:43:42.521Z,0.00
2018-02-20T06:44:42.515Z,0.00
2018-02-20T06:45:42.495Z,0.00
2018-02-20T06:46:42.485Z,0.00
2018-02-20T06:47:42.468Z,0.00
2018-02-20T06:48:42.453Z,0.00
2018-02-20T06:49:42.437Z,0.00
2018-02-20T06:50:42.455Z,0.00
2018-02-20T06:51:42.403Z,0.00
2018-02-20T06:52:42.389Z,0.00
2018-02-20T06:53:42.372Z,0.00
2018-02-20T06:54:42.354Z,0.00
2018-02-20T06:55:42.357Z,0.00
2018-02-20T06:56:42.323Z,0.00
2018-02-20T06:57:42.314Z,0.00
2018-02-20T06:58:42.295Z,0.00
2018-02-20T06:59:42.278Z,0.00
2018-02-20T07:00:42.274Z,0.00
2018-02-20T07:01:42.248Z,0.00
2018-02-20T07:02:42.238Z,0.00
2018-02-20T07:03:42.216Z,0.00
2018-02-20T07:04:42.201Z,0.00
2018-02-20T07:05:42.187Z,0.00
2018-02-20T07:06:42.172Z,0.00
2018-02-20T07:07:42.154Z,0.00
2018-02-20T07:08:42.142Z,0.00
2018-02-20T07:09:42.125Z,0.00
2018-02-20T07:10:42.110Z,0.00
2018-02-20T07:11:42.093Z,0.00
2018-02-20T07:12:42.081Z,0.00
2018-02-20T07:13:42.070Z,0.00
2018-02-20T07:14:42.055Z,0.00
2018-02-20T07:15:42.031Z,0.00
2018-02-20T07:16:42.021Z,0.00
2018-02-20T07:17:42.006Z,0.00
2018-02-20T07:18:41.987Z,0.00
2018-02-20T07:19:41.970Z,0.00
2018-02-20T07:20:41.953Z,0.00
2018-02-20T07:21:41.937Z,0.00
2018-02-20T07:22:41.924Z,0.00
2018-02-20T07:23:41.907Z,0.00
2018-02-20T07:24:41.890Z,0.00
2018-02-20T07:25:41.875Z,0.00
2018-02-20T07:26:41.862Z,5.63
2018-02-20T07:27:41.842Z,5.63
2018-02-20T07:28:41.832Z,5.63
2018-02-20T07:29:41.813Z,5.63
2018-02-20T07:30:41.794Z,5.63
2018-02-20T07:31:41.781Z,5.63
2018-02-20T07:32:41.775Z,5.63
2018-02-20T07:33:41.747Z,5.63
2018-02-20T07:34:41.737Z,5.63
2018-02-20T07:35:41.721Z,5.63
2018-02-20T07:36:41.700Z,5.63
2018-02-20T07:37:41.684Z,5.63
2018-02-20T07:38:41.668Z,5.63
2018-02-20T07:39:41.650Z,5.63
2018-02-20T07:40:41.639Z,5.63
2018-02-20T07:41:41.625Z,5.63
2018-02-20T07:42:41.610Z,5.63
2018-02-20T07:43:41.586Z,5.63
2018-02-20T07:44:41.572Z,5.63
2018-02-20T07:45:41.555Z,5.63
2018-02-20T07:46:41.547Z,5.63
2018-02-20T07:47:41.527Z,11.25
2018-02-20T07:48:41.507Z,11.25
2018-02-20T07:49:41.493Z,11.25
2018-02-20T07:50:41.481Z,11.25
2018-02-20T07:51:41.459Z,11.25
2018-02-20T07:52:41.443Z,11.25
2018-02-20T07:53:41.429Z,11.25
2018-02-20T07:54:41.415Z,11.25
2018-02-20T07:55:41.393Z,11.25
2018-02-20T07:56:41.378Z,11.25
2018-02-20T07:57:41.366Z,11.25
2018-02-20T07:58:41.346Z,11.25
2018-02-20T07:59:41.337Z,11.25
2018-02-20T08:00:41.318Z,11.25
2018-02-20T08:01:41.298Z,11.25
2018-02-20T08:02:41.283Z,11.25
2018-02-20T08:03:41.267Z,11.25
2018-02-20T08:04:41.250Z,11.25
2018-02-20T08:05:41.233Z,11.25
2018-02-20T08:06:41.218Z,11.25
2018-02-20T08:07:41.211Z,11.25
2018-02-20T08:08:41.186Z,11.25
2018-02-20T08:09:41.172Z,11.25
2018-02-20T08:10:41.156Z,11.25
2018-02-20T08:11:41.143Z,11.25
2018-02-20T08:12:41.126Z,11.25
2018-02-20T08:13:41.112Z,11.25
2018-02-20T08:14:41.091Z,11.25
2018-02-20T08:15:41.074Z,11.25
2018-02-20T08:16:41.058Z,16.88
2018-02-20T08:17:41.048Z,16.88
2018-02-20T08:18:41.077Z,16.88
2018-02-20T08:19:41.021Z,16.88
2018-02-20T08:20:40.996Z,16.88
2018-02-20T08:21:40.983Z,16.88
2018-02-20T08:22:40.967Z,16.88
2018-02-20T08:23:40.948Z,16.88
2018-02-20T08:24:40.933Z,16.88
2018-02-20T08:25:40.923Z,16.88
2018-02-20T08:26:40.901Z,16.88
2018-02-20T08:27:40.885Z,16.88
2018-02-20T08:28:40.870Z,16.88
2018-02-20T08:29:40.873Z,16.88
2018-02-20T08:30:40.837Z,16.88
2018-02-20T08:31:40.822Z,16.88
2018-02-20T08:32:40.809Z,16.88
2018-02-20T08:33:40.793Z,16.88
2018-02-20T08:34:40.785Z,16.88
2018-02-20T08:35:40.765Z,16.88
2018-02-20T08:36:40.744Z,16.88
2018-02-20T08:37:40.732Z,16.88
2018-02-20T08:38:40.713Z,16.88
2018-02-20T08:39:40.695Z,16.88
2018-02-20T08:40:40.679Z,16.88
2018-02-20T08:41:40.664Z,16.88
2018-02-20T08:42:40.647Z,16.88
2018-02-20T08:43:40.632Z,22.50
2018-02-20T08:44:40.615Z,22.50
2018-02-20T08:45:40.599Z,22.50
2018-02-20T08:46:40.584Z,22.50
2018-02-20T08:47:40.567Z,22.50
2018-02-20T08:48:40.553Z,22.50
2018-02-20T08:49:40.538Z,22.50
2018-02-20T08:50:40.522Z,22.50
2018-02-20T08:51:40.504Z,22.50
2018-02-20T08:52:40.490Z,22.50
2018-02-20T08:53:40.478Z,22.50
2018-02-20T08:54:40.465Z,22.50
2018-02-20T08:55:40.439Z,22.50
2018-02-20T08:56:40.426Z,22.50
2018-02-20T08:57:40.415Z,22.50
2018-02-20T08:58:40.400Z,22.50
2018-02-20T08:59:40.376Z,22.50
2018-02-20T09:00:40.362Z,22.50
2018-02-20T09:01:40.352Z,28.13
2018-02-20T09:02:40.336Z,28.13
2018-02-20T09:03:40.319Z,28.13
2018-02-20T09:04:40.297Z,28.13
2018-02-20T09:05:40.281Z,28.13
2018-02-20T09:06:40.266Z,28.13
2018-02-20T09:07:40.255Z,28.13
2018-02-20T09:08:40.233Z,28.13
2018-02-20T09:09:40.217Z,28.13
2018-02-20T09:10:40.201Z,28.13
2018-02-20T09:11:40.185Z,28.13
2018-02-20T09:12:40.178Z,33.75
2018-02-20T09:13:40.155Z,33.75
2018-02-20T09:14:40.140Z,33.75
2018-02-20T09:15:40.122Z,33.75
2018-02-20T09:16:40.111Z,28.13
2018-02-20T09:17:40.089Z,33.75
2018-02-20T09:18:40.121Z,33.75
2018-02-20T09:19:40.056Z,33.75
2018-02-20T09:20:40.047Z,33.75
2018-02-20T09:21:40.026Z,33.75
2018-02-20T09:22:40.011Z,33.75
2018-02-20T09:23:39.996Z,33.75
2018-02-20T09:24:39.979Z,33.75
2018-02-20T09:25:39.959Z,33.75
2018-02-20T09:26:39.951Z,33.75
2018-02-20T09:27:39.934Z,33.75
2018-02-20T09:28:39.914Z,33.75
2018-02-20T09:29:39.901Z,33.75
2018-02-20T09:30:39.880Z,33.75
2018-02-20T09:31:39.865Z,33.75
2018-02-20T09:32:39.847Z,33.75
2018-02-20T09:33:39.833Z,33.75
2018-02-20T09:34:39.819Z,33.75
2018-02-20T09:35:39.806Z,33.75
2018-02-20T09:36:39.791Z,33.75
2018-02-20T09:37:39.769Z,33.75
2018-02-20T09:38:39.754Z,33.75
2018-02-20T09:39:39.741Z,33.75
2018-02-20T09:40:39.724Z,33.75
2018-02-20T09:41:39.713Z,33.75
2018-02-20T09:42:39.690Z,33.75
2018-02-20T09:43:39.675Z,33.75
2018-02-20T09:44:39.658Z,33.75
2018-02-20T09:45:39.642Z,33.75
2018-02-20T09:46:39.628Z,33.75
2018-02-20T09:47:39.610Z,33.75
2018-02-20T09:48:39.598Z,33.75
2018-02-20T09:49:39.579Z,33.75
2018-02-20T09:50:39.564Z,33.75
2018-02-20T09:51:39.547Z,33.75
2018-02-20T09:52:39.529Z,33.75
2018-02-20T09:53:39.514Z,33.75
2018-02-20T09:54:39.500Z,33.75
2018-02-20T09:55:39.481Z,33.75
2018-02-20T09:56:39.469Z,33.75
2018-02-20T09:57:39.455Z,33.75
2018-02-20T09:58:39.434Z,33.75
2018-02-20T09:59:39.419Z,33.75
2018-02-20T10:00:39.402Z,33.75
2018-02-20T10:01:39.385Z,33.75
2018-02-20T10:02:39.418Z,39.38
2018-02-20T10:03:39.353Z,33.75
2018-02-20T10:04:39.339Z,33.75
2018-02-20T10:05:39.322Z,39.38
2018-02-20T10:06:39.311Z,39.38
2018-02-20T10:07:39.291Z,39.38
2018-02-20T10:08:39.275Z,39.38
2018-02-20T10:09:39.260Z,39.38
2018-02-20T10:10:39.243Z,39.38
2018-02-20T10:11:39.227Z,39.38
2018-02-20T10:12:39.215Z,39.38
2018-02-20T10:13:39.195Z,45.00
2018-02-20T10:14:39.179Z,45.00
2018-02-20T10:15:39.169Z,45.00
2018-02-20T10:16:39.146Z,45.00
2018-02-20T10:17:39.134Z,45.00
2018-02-20T10:18:39.125Z,45.00
2018-02-20T10:19:39.106Z,45.00
2018-02-20T10:20:39.090Z,45.00
2018-02-20T10:21:39.074Z,45.00
2018-02-20T10:22:39.053Z,45.00
2018-02-20T10:23:39.041Z,45.00
2018-02-20T10:24:39.021Z,45.00
2018-02-20T10:25:39.010Z,45.00
2018-02-20T10:26:38.990Z,45.00
2018-02-20T10:27:38.974Z,45.00
2018-02-20T10:28:38.957Z,45.00
2018-02-20T10:29:38.942Z,45.00
2018-02-20T10:30:38.927Z,45.00
2018-02-20T10:31:38.910Z,45.00
2018-02-20T10:32:38.895Z,45.00
2018-02-20T10:33:38.878Z,45.00
2018-02-20T10:34:38.863Z,45.00
2018-02-20T10:35:38.849Z,45.00
2018-02-20T10:36:38.836Z,45.00
2018-02-20T10:37:38.817Z,45.00
2018-02-20T10:38:38.800Z,45.00
2018-02-20T10:39:38.783Z,45.00
2018-02-20T10:40:38.771Z,45.00
2018-02-20T10:41:38.755Z,45.00
2018-02-20T10:42:38.739Z,45.00
2018-02-20T10:43:38.723Z,45.00
2018-02-20T10:44:38.706Z,45.00
2018-02-20T10:45:38.691Z,45.00
2018-02-20T10:46:38.675Z,45.00
2018-02-20T10:47:38.663Z,45.00
2018-02-20T10:48:38.644Z,45.00
2018-02-20T10:49:38.628Z,45.00
2018-02-20T10:50:38.614Z,45.00
2018-02-20T10:51:38.602Z,45.00
2018-02-20T10:52:38.585Z,45.00
2018-02-20T10:53:38.570Z,45.00
2018-02-20T10:54:38.550Z,50.63
2018-02-20T10:55:38.534Z,50.63
2018-02-20T10:56:38.517Z,50.63
2018-02-20T10:57:38.503Z,50.63
2018-02-20T10:58:38.487Z,50.63
2018-02-20T10:59:38.470Z,50.63
2018-02-20T11:00:38.458Z,50.63
2018-02-20T11:01:38.450Z,56.25
2018-02-20T11:02:38.431Z,56.25
2018-02-20T11:03:38.410Z,56.25
2018-02-20T11:04:38.394Z,56.25
2018-02-20T11:05:38.384Z,56.25
2018-02-20T11:06:38.368Z,56.25
2018-02-20T11:07:38.378Z,56.25
2018-02-20T11:08:38.336Z,56.25
2018-02-20T11:09:38.320Z,56.25
2018-02-20T11:10:38.299Z,56.25
2018-02-20T11:11:38.283Z,61.88
2018-02-20T11:12:38.268Z,61.88
2018-02-20T11:13:38.253Z,61.88
2018-02-20T11:14:38.241Z,61.88
2018-02-20T11:15:38.226Z,61.88
2018-02-20T11:16:38.205Z,61.88
2018-02-20T11:17:38.190Z,61.88
2018-02-20T11:18:38.174Z,61.88
2018-02-20T11:19:38.158Z,61.88
2018-02-20T11:20:38.142Z,61.88
2018-02-20T11:21:38.129Z,61.88
2018-02-20T11:22:38.111Z,61.88
2018-02-20T11:23:38.101Z,61.88
2018-02-20T11:24:38.078Z,61.88
2018-02-20T11:25:38.121Z,61.88
2018-02-20T11:26:38.048Z,61.88
2018-02-20T11:27:38.033Z,61.88
2018-02-20T11:28:38.025Z,61.88
2018-02-20T11:29:38.011Z,61.88
2018-02-20T11:30:37.987Z,61.88
2018-02-20T11:31:37.976Z,61.88
2018-02-20T11:32:37.954Z,61.88
2018-02-20T11:33:37.943Z,67.50
2018-02-20T11:34:37.924Z,67.50
2018-02-20T11:35:37.911Z,67.50
2018-02-20T11:36:37.893Z,67.50
2018-02-20T11:37:37.878Z,67.50
2018-02-20T11:38:37.900Z,67.50
2018-02-20T11:39:37.851Z,67.50
2018-02-20T11:40:37.833Z,67.50
2018-02-20T11:41:37.817Z,67.50
2018-02-20T11:42:37.806Z,67.50
2018-02-20T11:43:37.786Z,67.50
2018-02-20T11:44:37.776Z,73.13
2018-02-20T11:45:37.756Z,73.13
2018-02-20T11:46:37.740Z,73.13
2018-02-20T11:47:37.726Z,73.13
2018-02-20T11:48:37.715Z,73.13
2018-02-20T11:49:37.694Z,73.13
2018-02-20T11:50:37.680Z,73.13
2018-02-20T11:51:37.664Z,73.13
2018-02-20T11:52:37.648Z,78.75
2018-02-20T11:53:37.635Z,78.75
2018-02-20T11:54:37.624Z,78.75
2018-02-20T11:55:37.604Z,78.75
2018-02-20T11:56:37.594Z,78.75
2018-02-20T11:57:37.582Z,78.75
2018-02-20T11:58:37.561Z,78.75
2018-02-20T11:59:37.551Z,78.75
2018-02-20T12:00:37.531Z,78.75
2018-02-20T12:01:37.514Z,78.75
2018-02-20T12:02:37.505Z,78.75
2018-02-20T12:03:37.484Z,78.75
2018-02-20T12:04:37.473Z,78.75
2018-02-20T12:05:37.457Z,78.75
2018-02-20T12:06:37.445Z,78.75
2018-02-20T12:07:37.431Z,78.75
2018-02-20T12:08:37.413Z,78.75
2018-02-20T12:09:37.398Z,78.75
2018-02-20T12:10:37.383Z,78.75
2018-02-20T12:11:37.370Z,78.75
2018-02-20T12:12:37.359Z,73.13
2018-02-20T12:13:37.340Z,73.13
2018-02-20T12:14:37.325Z,73.13
2018-02-20T12:15:37.309Z,73.13
2018-02-20T12:16:37.302Z,73.13
2018-02-20T12:17:37.280Z,73.13
2018-02-20T12:18:37.269Z,73.13
2018-02-20T12:19:37.253Z,73.13
2018-02-20T12:20:37.236Z,73.13
2018-02-20T12:21:37.222Z,73.13
2018-02-20T12:22:37.207Z,73.13
2018-02-20T12:23:37.194Z,73.13
2018-02-20T12:24:37.184Z,73.13
2018-02-20T12:25:37.166Z,73.13
2018-02-20T12:26:37.154Z,73.13
2018-02-20T12:27:37.142Z,73.13
2018-02-20T12:28:37.123Z,73.13
2018-02-20T12:29:37.126Z,73.13
2018-02-20T12:30:37.097Z,73.13
2018-02-20T12:31:37.080Z,73.13
2018-02-20T12:32:37.067Z,73.13
2018-02-20T12:33:37.064Z,73.13
2018-02-20T12:34:37.038Z,73.13
2018-02-20T12:35:37.021Z,73.13
2018-02-20T12:36:37.019Z,73.13
2018-02-20T12:37:36.992Z,73.13
2018-02-20T12:38:36.988Z,73.13
2018-02-20T12:39:36.964Z,73.13
2018-02-20T12:40:36.955Z,73.13
2018-02-20T12:41:36.942Z,73.13
2018-02-20T12:42:36.932Z,73.13
2018-02-20T12:43:36.906Z,73.13
2018-02-20T12:44:36.901Z,73.13
2018-02-20T12:45:36.881Z,73.13
2018-02-20T12:46:36.871Z,73.13
2018-02-20T12:47:36.849Z,73.13
2018-02-20T12:48:36.835Z,73.13
2018-02-20T12:49:36.828Z,73.13
2018-02-20T12:50:36.808Z,73.13
2018-02-20T12:51:36.797Z,73.13
2018-02-20T12:52:36.779Z,73.13
2018-02-20T12:53:36.786Z,73.13
2018-02-20T12:54:36.751Z,73.13
2018-02-20T12:55:36.735Z,73.13
2018-02-20T12:56:36.722Z,73.13
2018-02-20T12:57:36.712Z,73.13
2018-02-20T12:58:36.695Z,73.13
2018-02-20T12:59:36.687Z,73.13
2018-02-20T13:00:36.671Z,73.13
2018-02-20T13:01:36.653Z,73.13
2018-02-20T13:02:36.648Z,67.50
2018-02-20T13:03:36.624Z,67.50
2018-02-20T13:04:36.611Z,67.50
2018-02-20T13:05:36.602Z,67.50
2018-02-20T13:06:36.582Z,67.50
2018-02-20T13:07:36.568Z,61.88